Narnia — MYRY9 — position and weather

sailwx.info

Track history (hours):
 
Tides and Currents Weather Stations Pressure Air Temp Water Temp Dewpoint Dewpoint Depression Visibility Wind Speed Wind Dir Waves Ship Positions

Narnia

Last reported at 2017-Sep-09 14:39 UTC. Time now 2017-Sep-20 01:56 UTC.
Position N 54°22' W 005°41'.
Warning: this ship's position is 10 days out of date.

Length 14 m.

Type: Pleasure craft. MMSI: 235054974.

Date/timePositionNaut miles runAvg speedWind from/ knotsBaromVisibWave heightAir tempDewpointWater temp
2017-Sep-09 14:39N 54°22' W 005°41'0 0.0
2017-Sep-09 14:30N 54°22' W 005°41'2 4.9
2017-Sep-09 14:00N 54°24' W 005°38'0 0.9
2017-Sep-09 13:27N 54°24' W 005°38'2 3.7
2017-Sep-09 13:00N 54°23' W 005°39'  
2017-Aug-31 13:13N 54°22' W 005°41'0 0.0
2017-Aug-31 12:58N 54°22' W 005°41'3 5.8
2017-Aug-31 12:25N 54°25' W 005°38'2 4.0
2017-Aug-31 11:50N 54°27' W 005°38'3 5.7
2017-Aug-31 11:23N 54°25' W 005°36'2 5.8
2017-Aug-31 11:00N 54°23' W 005°34'1 0.0
2017-Aug-30 15:30N 54°22' W 005°33'4 7.9
2017-Aug-30 14:59N 54°18' W 005°32'  
Track history (hours):
 
Tides and Currents Weather Stations Pressure Air Temp Water Temp Dewpoint Dewpoint Depression Visibility Wind Speed Wind Dir Waves Ship Positions

Narnia

Last reported at 2017-Sep-09 14:39 UTC. Time now 2017-Sep-20 01:56 UTC.
Position N 54°22' W 005°41'.
Warning: this ship's position is 10 days out of date.

Length 14 m.

Type: Pleasure craft. MMSI: 235054974.

Date/timePositionNaut miles runAvg speedWind from/ knotsBaromVisibWave heightAir tempDewpointWater temp
2017-Sep-09 14:39N 54°22' W 005°41'0 0.0
2017-Sep-09 14:30N 54°22' W 005°41'2 4.9
2017-Sep-09 14:00N 54°24' W 005°38'0 0.9
2017-Sep-09 13:27N 54°24' W 005°38'2 3.7
2017-Sep-09 13:00N 54°23' W 005°39'  
2017-Aug-31 13:13N 54°22' W 005°41'0 0.0
2017-Aug-31 12:58N 54°22' W 005°41'3 5.8
2017-Aug-31 12:25N 54°25' W 005°38'2 4.0
2017-Aug-31 11:50N 54°27' W 005°38'3 5.7
2017-Aug-31 11:23N 54°25' W 005°36'2 5.8
2017-Aug-31 11:00N 54°23' W 005°34'1 0.0
2017-Aug-30 15:30N 54°22' W 005°33'4 7.9
2017-Aug-30 14:59N 54°18' W 005°32'  

Dump ship's entire track history